Time;durP1;ratioP1;P1;durP2;ratioP2;P2;SDS_P1;SDS_P2;PMS_P1;PMS_P2;Temp;Humidity;BMP_temperature;BMP_pressure;BME280_temperature;BME280_humidity;BME280_pressure;Samples;Min_cycle;Max_cycle;Signal;HPM_P1;HPM_P2
2023/07/04 00:00:35;;;;;;;17.73;16.38;;;19.70;99.90;;;;;;5290307;28;20140;-71
2023/07/04 00:03:06;;;;;;;16.40;15.20;;;19.50;99.90;;;;;;5290232;28;20061;-71
2023/07/04 00:05:38;;;;;;;18.60;17.27;;;19.60;99.90;;;;;;5290028;28;20490;-71
2023/07/04 00:08:11;;;;;;;18.83;17.50;;;19.40;99.90;;;;;;5290184;28;20031;-71
2023/07/04 00:10:43;;;;;;;19.90;18.48;;;19.50;99.90;;;;;;5290062;28;20023;-71
2023/07/04 00:13:15;;;;;;;18.60;17.30;;;19.40;99.90;;;;;;5290185;28;20024;-71
2023/07/04 00:15:47;;;;;;;19.77;18.38;;;19.50;99.90;;;;;;5290367;28;20032;-71
2023/07/04 00:18:20;;;;;;;18.13;16.70;;;19.30;99.90;;;;;;5290039;28;20070;-71
2023/07/04 00:20:54;;;;;;;17.58;16.15;;;19.20;99.90;;;;;;5289880;28;20079;-71
2023/07/04 00:23:27;;;;;;;19.45;17.95;;;19.40;99.90;;;;;;5289830;28;20042;-71
2023/07/04 00:25:58;;;;;;;19.88;18.35;;;19.30;99.90;;;;;;5289139;28;20023;-71
2023/07/04 00:28:29;;;;;;;18.08;16.77;;;19.20;99.90;;;;;;5289790;28;20596;-71
2023/07/04 00:31:02;;;;;;;18.55;17.05;;;19.30;99.90;;;;;;5289711;28;20550;-71
2023/07/04 00:33:34;;;;;;;19.33;18.02;;;19.20;99.90;;;;;;5289892;28;20028;-71
2023/07/04 00:36:07;;;;;;;19.33;18.08;;;19.40;99.90;;;;;;5289475;28;20106;-71
2023/07/04 00:38:40;;;;;;;20.67;19.30;;;19.40;99.90;;;;;;5289516;28;20080;-71
2023/07/04 00:41:21;;;;;;;19.55;18.15;;;19.30;99.90;;;;;;5289593;28;20438;-71
2023/07/04 00:44:11;;;;;;;19.25;17.83;;;19.10;99.90;;;;;;5289479;28;20110;-71
2023/07/04 00:46:54;;;;;;;18.63;17.27;;;19.20;99.90;;;;;;5289450;28;20016;-71
2023/07/04 00:49:37;;;;;;;22.88;21.33;;;19.10;99.90;;;;;;5289430;28;20024;-71
2023/07/04 00:52:16;;;;;;;22.42;20.88;;;19.20;99.90;;;;;;5289494;28;20019;-71
2023/07/04 00:54:53;;;;;;;20.17;18.73;;;19.10;99.90;;;;;;5289386;28;20031;-70
2023/07/04 00:57:27;;;;;;;22.25;20.77;;;19.10;99.90;;;;;;5289193;28;20051;-71
2023/07/04 01:00:08;;;;;;;25.10;23.50;;;19.10;99.90;;;;;;5289058;28;20023;-71
2023/07/04 01:02:39;;;;;;;21.30;19.92;;;19.10;99.90;;;;;;5289142;28;20073;-71
2023/07/04 01:05:10;;;;;;;24.73;23.08;;;19.10;99.90;;;;;;5289265;28;20023;-71
2023/07/04 01:07:59;;;;;;;23.25;21.60;;;19.10;99.90;;;;;;5289073;28;20103;-71
2023/07/04 01:10:37;;;;;;;22.17;20.42;;;19.10;99.90;;;;;;5289137;28;20028;-71
2023/07/04 01:13:43;;;;;;;21.92;20.42;;;19.00;99.90;;;;;;5289226;28;20415;-71
2023/07/04 01:16:19;;;;;;;22.02;20.60;;;18.90;99.90;;;;;;5289072;28;20031;-71
2023/07/04 01:18:56;;;;;;;21.30;19.70;;;18.90;99.90;;;;;;5288925;28;20364;-71
2023/07/04 01:21:28;;;;;;;18.15;16.85;;;19.00;99.90;;;;;;5287888;28;20028;-71
2023/07/04 01:24:18;;;;;;;18.77;17.25;;;18.80;99.90;;;;;;5289028;28;20032;-71
2023/07/04 01:26:49;;;;;;;17.95;16.58;;;18.90;99.90;;;;;;5288811;28;20046;-71
2023/07/04 01:29:21;;;;;;;17.38;16.10;;;18.90;99.90;;;;;;5288981;28;20027;-71
2023/07/04 01:31:52;;;;;;;16.95;15.63;;;19.00;99.90;;;;;;5288968;28;20174;-71
2023/07/04 01:34:23;;;;;;;14.80;13.70;;;18.70;99.90;;;;;;5289088;28;20098;-71
2023/07/04 01:36:54;;;;;;;14.98;13.88;;;18.60;99.90;;;;;;5288683;28;20054;-70
2023/07/04 01:39:25;;;;;;;13.57;12.40;;;18.70;99.90;;;;;;5292163;28;20024;-71
2023/07/04 01:41:56;;;;;;;12.75;11.85;;;18.80;99.90;;;;;;5293089;28;20116;-71
2023/07/04 01:44:27;;;;;;;15.27;14.13;;;19.00;99.90;;;;;;5292947;28;20069;-71
2023/07/04 01:46:58;;;;;;;14.18;13.10;;;18.90;99.90;;;;;;5292952;28;20028;-71
2023/07/04 01:49:29;;;;;;;14.05;13.05;;;18.90;99.90;;;;;;5292925;28;20042;-71
2023/07/04 01:52:00;;;;;;;16.10;15.00;;;18.80;99.90;;;;;;5292867;28;20047;-71
2023/07/04 01:54:30;;;;;;;13.65;12.45;;;18.60;99.90;;;;;;5292751;27;20098;-71
2023/07/04 01:57:03;;;;;;;14.57;13.38;;;18.60;99.90;;;;;;5292728;27;20043;-71
2023/07/04 01:59:34;;;;;;;14.68;13.48;;;18.60;99.90;;;;;;5292796;28;20417;-71
2023/07/04 02:02:05;;;;;;;13.60;12.50;;;18.40;99.90;;;;;;5292752;28;20042;-71
2023/07/04 02:04:36;;;;;;;13.98;12.77;;;18.50;99.90;;;;;;5292693;28;20047;-71
2023/07/04 02:07:08;;;;;;;15.35;14.25;;;18.60;99.90;;;;;;5292691;28;20136;-71
2023/07/04 02:09:39;;;;;;;17.67;16.17;;;18.50;99.90;;;;;;5292363;28;20032;-71
2023/07/04 02:12:10;;;;;;;16.45;15.15;;;18.40;99.90;;;;;;5292501;28;20352;-71
2023/07/04 02:14:41;;;;;;;15.20;13.98;;;18.40;99.90;;;;;;5292389;28;20015;-71
2023/07/04 02:17:12;;;;;;;14.75;13.63;;;18.40;99.90;;;;;;5292236;28;20539;-71
2023/07/04 02:19:43;;;;;;;15.38;14.13;;;18.30;99.90;;;;;;5291055;28;20114;-71
2023/07/04 02:22:13;;;;;;;15.75;14.45;;;18.20;99.90;;;;;;5292306;28;20036;-71
2023/07/04 02:24:44;;;;;;;13.65;12.35;;;18.10;99.90;;;;;;5292295;28;20019;-70
2023/07/04 02:27:15;;;;;;;11.77;10.70;;;18.10;99.90;;;;;;5292248;28;20134;-71
2023/07/04 02:29:47;;;;;;;11.25;10.15;;;18.20;99.90;;;;;;5292261;28;20160;-70
2023/07/04 02:32:18;;;;;;;13.48;10.88;;;18.30;99.90;;;;;;5292189;28;20696;-71
2023/07/04 02:34:49;;;;;;;12.98;11.88;;;18.30;99.90;;;;;;5292210;28;20019;-71
2023/07/04 02:37:20;;;;;;;12.15;11.15;;;18.10;99.90;;;;;;5292327;28;20516;-71
2023/07/04 02:39:52;;;;;;;12.70;11.60;;;18.20;99.90;;;;;;5292178;28;20350;-72
2023/07/04 02:42:23;;;;;;;12.50;11.27;;;18.10;99.90;;;;;;5292067;28;20390;-71
2023/07/04 02:44:54;;;;;;;13.43;12.43;;;18.30;99.90;;;;;;5291968;28;20077;-71
2023/07/04 02:47:26;;;;;;;13.18;12.02;;;18.30;99.90;;;;;;5291866;28;20085;-71
2023/07/04 02:49:57;;;;;;;12.95;11.95;;;18.30;99.90;;;;;;5291327;28;20031;-71
2023/07/04 02:52:28;;;;;;;11.98;10.98;;;18.40;99.90;;;;;;5291824;28;20031;-71
2023/07/04 02:54:58;;;;;;;13.40;12.27;;;18.30;99.90;;;;;;5290509;28;20024;-71
2023/07/04 02:57:29;;;;;;;13.95;12.88;;;18.40;99.90;;;;;;5291585;28;20116;-70
2023/07/04 03:00:00;;;;;;;14.25;13.13;;;18.30;99.90;;;;;;5291511;28;20020;-72
2023/07/04 03:02:31;;;;;;;14.32;13.07;;;18.50;99.90;;;;;;5291631;28;20078;-71
2023/07/04 03:05:02;;;;;;;15.38;14.20;;;18.40;99.90;;;;;;5291678;28;20459;-71
2023/07/04 03:07:33;;;;;;;16.00;14.73;;;18.40;99.90;;;;;;5291455;28;20050;-71
2023/07/04 03:10:05;;;;;;;14.73;13.43;;;18.30;99.90;;;;;;5291373;28;20047;-71
2023/07/04 03:12:35;;;;;;;14.20;13.10;;;18.40;99.90;;;;;;5291381;28;20026;-71
2023/07/04 03:15:07;;;;;;;13.15;12.02;;;18.30;99.90;;;;;;5291267;28;20016;-71
2023/07/04 03:17:38;;;;;;;13.20;12.18;;;18.10;99.90;;;;;;5291145;28;20084;-71
2023/07/04 03:20:11;;;;;;;13.85;12.65;;;18.10;99.90;;;;;;5291109;28;20024;-71
2023/07/04 03:22:43;;;;;;;14.57;13.50;;;18.20;99.90;;;;;;5291113;28;20022;-71
2023/07/04 03:25:15;;;;;;;14.50;13.35;;;18.40;99.90;;;;;;5291022;28;20412;-71
2023/07/04 03:27:46;;;;;;;14.45;13.25;;;18.40;99.90;;;;;;5290670;28;20083;-71
2023/07/04 03:30:17;;;;;;;13.38;12.38;;;18.40;99.90;;;;;;5290999;28;20074;-71
2023/07/04 03:32:48;;;;;;;11.60;10.60;;;18.40;99.90;;;;;;5290839;28;20096;-70
2023/07/04 03:35:19;;;;;;;13.75;12.65;;;18.40;99.90;;;;;;5290887;28;20030;-71
2023/07/04 03:37:50;;;;;;;14.60;13.45;;;18.40;99.90;;;;;;5290670;28;20043;-71
2023/07/04 03:40:21;;;;;;;13.95;12.80;;;18.50;99.90;;;;;;5290618;28;20471;-71
2023/07/04 03:42:51;;;;;;;15.38;14.00;;;18.60;99.90;;;;;;5290661;28;20118;-72
2023/07/04 03:45:22;;;;;;;14.57;13.43;;;18.50;99.90;;;;;;5290670;28;20020;-71
2023/07/04 03:47:53;;;;;;;14.50;13.10;;;18.80;99.90;;;;;;5290462;28;20417;-71
2023/07/04 03:50:24;;;;;;;13.27;12.18;;;18.90;99.90;;;;;;5290606;28;20450;-71
2023/07/04 03:52:55;;;;;;;13.15;12.13;;;18.90;99.90;;;;;;5290701;28;20497;-71
2023/07/04 03:55:26;;;;;;;12.88;11.65;;;18.90;99.90;;;;;;5290655;28;20028;-71
2023/07/04 03:57:56;;;;;;;12.77;11.77;;;19.10;99.90;;;;;;5290485;28;20039;-71
2023/07/04 04:00:28;;;;;;;12.85;11.75;;;19.00;99.90;;;;;;5289555;28;20027;-71
2023/07/04 04:02:59;;;;;;;14.45;13.18;;;19.10;99.90;;;;;;5290530;28;20034;-72
2023/07/04 04:05:30;;;;;;;13.18;12.05;;;19.10;99.90;;;;;;5290247;28;20042;-71
2023/07/04 04:08:01;;;;;;;11.68;10.85;;;19.10;99.90;;;;;;5290251;28;20020;-71
2023/07/04 04:10:31;;;;;;;12.30;11.30;;;19.30;99.90;;;;;;5290123;28;20034;-71
2023/07/04 04:13:02;;;;;;;12.63;11.63;;;19.40;99.90;;;;;;5290089;28;20065;-72
2023/07/04 04:15:33;;;;;;;12.63;11.70;;;19.40;99.90;;;;;;5290114;28;20076;-71
2023/07/04 04:18:04;;;;;;;13.82;12.63;;;19.60;99.90;;;;;;5289736;28;20051;-72
2023/07/04 04:20:35;;;;;;;13.35;12.35;;;19.70;99.90;;;;;;5290032;28;20059;-71
2023/07/04 04:23:06;;;;;;;14.05;12.95;;;19.80;99.90;;;;;;5289999;28;20031;-71
2023/07/04 04:25:39;;;;;;;14.68;13.48;;;19.90;99.90;;;;;;5288509;28;20035;-71
2023/07/04 04:28:10;;;;;;;14.68;13.48;;;20.10;99.90;;;;;;5288358;28;20044;-71
2023/07/04 04:30:42;;;;;;;15.57;14.25;;;20.10;99.90;;;;;;5289789;28;20382;-71
2023/07/04 04:33:16;;;;;;;16.30;14.98;;;20.00;99.90;;;;;;5289690;28;20024;-71
2023/07/04 04:35:47;;;;;;;17.80;16.30;;;20.00;99.90;;;;;;5289653;28;20032;-71
2023/07/04 04:38:17;;;;;;;16.58;15.07;;;20.30;99.90;;;;;;5289436;28;20125;-71
2023/07/04 04:40:50;;;;;;;19.10;17.55;;;20.40;99.90;;;;;;5289539;28;20364;-71
2023/07/04 04:43:21;;;;;;;23.10;21.45;;;20.60;99.90;;;;;;5289591;28;20057;-71
2023/07/04 04:45:52;;;;;;;26.27;24.48;;;20.70;99.90;;;;;;5289536;28;20023;-71
2023/07/04 04:48:29;;;;;;;30.30;28.38;;;20.80;99.90;;;;;;5289362;28;20026;-71
2023/07/04 04:51:09;;;;;;;31.13;29.10;;;20.90;99.90;;;;;;5289485;28;20031;-71
2023/07/04 04:53:42;;;;;;;28.40;26.40;;;21.00;99.90;;;;;;5289419;28;20475;-71
2023/07/04 04:56:13;;;;;;;27.95;26.15;;;21.10;99.90;;;;;;5289153;28;20035;-71
2023/07/04 04:58:44;;;;;;;25.80;24.17;;;21.30;99.90;;;;;;5289338;28;20383;-71
2023/07/04 05:01:22;;;;;;;27.23;25.10;;;21.40;99.90;;;;;;5289156;28;20035;-71
2023/07/04 05:03:55;;;;;;;27.00;25.15;;;21.50;99.90;;;;;;5289234;28;20024;-71
2023/07/04 05:06:27;;;;;;;27.70;25.92;;;21.60;99.90;;;;;;5289255;28;20506;-71
2023/07/04 05:08:58;;;;;;;29.10;27.23;;;21.80;99.90;;;;;;5289235;28;20165;-71
2023/07/04 05:11:31;;;;;;;31.65;29.42;;;21.80;99.90;;;;;;5289022;28;20031;-71
2023/07/04 05:14:04;;;;;;;28.80;26.95;;;21.90;99.90;;;;;;5289500;28;20027;-72
2023/07/04 05:16:35;;;;;;;26.77;24.98;;;22.10;99.90;;;;;;5289045;28;20391;-71
2023/07/04 05:19:05;;;;;;;25.40;23.70;;;22.30;99.90;;;;;;5289136;28;20023;-71
2023/07/04 05:21:36;;;;;;;22.23;20.50;;;22.50;99.90;;;;;;5289089;28;20032;-70
2023/07/04 05:24:07;;;;;;;18.35;17.05;;;22.60;99.90;;;;;;5289127;28;20020;-71
2023/07/04 05:26:38;;;;;;;14.38;13.07;;;22.80;99.90;;;;;;5288710;28;20043;-70
2023/07/04 05:29:09;;;;;;;11.35;10.35;;;23.00;99.90;;;;;;5289139;28;20031;-71
2023/07/04 05:31:40;;;;;;;11.05;10.05;;;23.10;99.90;;;;;;5288909;28;20023;-71
2023/07/04 05:34:11;;;;;;;11.02;9.93;;;23.30;99.90;;;;;;5288969;28;20023;-71
2023/07/04 05:36:42;;;;;;;11.02;10.15;;;23.40;99.90;;;;;;5288733;28;20059;-71
2023/07/04 05:39:13;;;;;;;11.02;10.18;;;23.60;99.90;;;;;;5288832;28;20059;-71
2023/07/04 05:41:44;;;;;;;13.30;10.88;;;23.70;99.90;;;;;;5288853;28;20059;-71
2023/07/04 05:44:14;;;;;;;14.18;12.98;;;23.80;99.90;;;;;;5288867;28;20055;-72
2023/07/04 05:46:46;;;;;;;13.60;12.38;;;23.90;99.90;;;;;;5288766;28;20475;-71
2023/07/04 05:49:17;;;;;;;11.60;10.70;;;24.00;99.90;;;;;;5288790;28;20483;-71
2023/07/04 05:51:48;;;;;;;10.68;9.85;;;24.20;99.90;;;;;;5288741;28;20038;-71
2023/07/04 05:54:19;;;;;;;9.23;8.30;;;24.20;99.90;;;;;;5288656;28;20016;-71
2023/07/04 05:56:55;;;;;;;9.93;8.93;;;24.30;99.90;;;;;;5288456;28;20055;-71
2023/07/04 05:59:26;;;;;;;10.40;9.50;;;24.50;99.90;;;;;;5288590;28;20016;-71
2023/07/04 06:01:58;;;;;;;10.20;9.38;;;24.50;99.90;;;;;;5288709;28;20360;-71
2023/07/04 06:04:29;;;;;;;9.35;8.55;;;24.60;99.90;;;;;;5288533;28;20027;-71
2023/07/04 06:07:02;;;;;;;10.02;9.23;;;24.80;99.90;;;;;;5288558;28;20093;-71
2023/07/04 06:09:33;;;;;;;9.55;8.65;;;24.80;99.90;;;;;;5288498;28;20412;-71
2023/07/04 06:12:07;;;;;;;9.38;8.43;;;24.90;99.90;;;;;;5288642;28;20055;-71
2023/07/04 06:14:38;;;;;;;8.52;7.65;;;25.00;99.90;;;;;;5288530;28;20020;-71
2023/07/04 06:17:08;;;;;;;7.93;7.22;;;25.10;99.90;;;;;;5288431;28;20054;-70
2023/07/04 06:19:39;;;;;;;8.88;8.07;;;25.10;99.90;;;;;;5288670;28;20486;-71
2023/07/04 06:22:10;;;;;;;9.05;8.27;;;25.20;99.90;;;;;;5288868;28;20488;-71
2023/07/04 06:24:43;;;;;;;9.60;8.63;;;25.30;99.90;;;;;;5290367;28;20063;-71
2023/07/04 06:27:14;;;;;;;11.10;10.25;;;25.40;99.90;;;;;;5291998;28;20451;-71
2023/07/04 06:29:47;;;;;;;15.55;14.25;;;25.60;99.90;;;;;;5292148;28;20034;-72
2023/07/04 06:32:18;;;;;;;17.15;16.08;;;25.60;99.90;;;;;;5292210;28;20074;-71
2023/07/04 06:34:49;;;;;;;16.27;15.15;;;25.70;99.90;;;;;;5292208;28;20047;-70
2023/07/04 06:37:20;;;;;;;17.95;16.70;;;25.70;99.90;;;;;;5292108;28;20044;-71
2023/07/04 06:39:51;;;;;;;16.67;15.48;;;25.70;99.90;;;;;;5291818;28;20355;-71
2023/07/04 06:42:21;;;;;;;17.33;16.13;;;25.80;99.90;;;;;;5292005;28;20356;-71
2023/07/04 06:44:52;;;;;;;18.52;17.27;;;26.00;99.90;;;;;;5291958;27;20424;-71
2023/07/04 06:47:23;;;;;;;15.38;14.25;;;26.00;99.90;;;;;;5291727;28;20415;-72
2023/07/04 06:49:54;;;;;;;19.10;17.80;;;26.00;99.90;;;;;;5291990;28;20035;-71
2023/07/04 06:52:25;;;;;;;22.33;20.88;;;26.10;99.90;;;;;;5291723;28;20435;-71
2023/07/04 06:54:56;;;;;;;23.58;22.02;;;26.10;99.90;;;;;;5291582;28;20028;-71
2023/07/04 06:57:26;;;;;;;14.10;13.15;;;26.10;99.90;;;;;;5291377;28;20089;-70
2023/07/04 06:59:57;;;;;;;14.50;13.45;;;26.20;99.90;;;;;;5291563;28;20036;-71
2023/07/04 07:02:28;;;;;;;13.45;12.45;;;26.30;99.90;;;;;;5291496;28;20482;-72
2023/07/04 07:04:59;;;;;;;13.30;12.30;;;26.40;99.90;;;;;;5291466;28;20036;-71
2023/07/04 07:07:30;;;;;;;10.85;9.95;;;26.60;99.90;;;;;;5291395;28;20059;-72
2023/07/04 07:10:01;;;;;;;9.73;8.93;;;26.60;99.90;;;;;;5291452;28;20030;-71
2023/07/04 07:12:32;;;;;;;9.80;9.10;;;26.60;99.90;;;;;;5291251;28;20028;-71
2023/07/04 07:15:03;;;;;;;9.90;9.10;;;26.60;99.90;;;;;;5291339;28;20056;-71
2023/07/04 07:17:34;;;;;;;10.43;9.63;;;26.70;99.90;;;;;;5290946;28;20040;-71
2023/07/04 07:20:07;;;;;;;10.60;9.80;;;26.80;99.90;;;;;;5291288;28;20028;-71
2023/07/04 07:22:38;;;;;;;11.18;10.27;;;26.90;99.90;;;;;;5291339;28;20085;-70
2023/07/04 07:25:09;;;;;;;11.40;10.40;;;27.00;99.90;;;;;;5291233;28;20031;-71
2023/07/04 07:27:40;;;;;;;10.80;9.90;;;27.10;99.90;;;;;;5290660;28;20075;-71
2023/07/04 07:30:11;;;;;;;10.63;9.73;;;27.20;99.90;;;;;;5291086;28;20031;-71
2023/07/04 07:32:42;;;;;;;10.95;10.15;;;27.20;99.90;;;;;;5291022;28;20018;-71
2023/07/04 07:35:13;;;;;;;11.02;8.52;;;27.20;99.90;;;;;;5291052;28;20471;-71
2023/07/04 07:37:44;;;;;;;9.40;8.73;;;27.30;99.90;;;;;;5290902;28;20497;-71
2023/07/04 07:40:15;;;;;;;10.13;9.32;;;27.40;99.90;;;;;;5291148;28;20028;-71
2023/07/04 07:42:45;;;;;;;10.43;9.63;;;27.50;99.90;;;;;;5290889;28;20443;-71
2023/07/04 07:45:16;;;;;;;14.77;13.63;;;27.60;99.90;;;;;;5290740;28;20031;-71
2023/07/04 07:47:47;;;;;;;13.10;12.23;;;27.60;99.90;;;;;;5290684;28;20027;-71
2023/07/04 07:50:19;;;;;;;12.88;11.93;;;27.60;99.90;;;;;;5290696;28;20023;-71
2023/07/04 07:52:50;;;;;;;9.70;8.90;;;27.70;99.90;;;;;;5290664;28;20032;-71
2023/07/04 07:55:21;;;;;;;7.70;6.90;;;27.80;99.90;;;;;;5290506;28;20043;-71
2023/07/04 07:57:51;;;;;;;7.07;6.40;;;27.90;99.90;;;;;;5290392;28;20047;-71
2023/07/04 08:00:22;;;;;;;7.45;6.85;;;28.00;99.90;;;;;;5290381;28;20103;-71
2023/07/04 08:02:53;;;;;;;8.45;6.15;;;28.00;99.90;;;;;;5290314;28;20413;-71
2023/07/04 08:05:24;;;;;;;20.88;7.05;;;27.80;99.90;;;;;;5290352;28;20047;-71
2023/07/04 08:07:55;;;;;;;6.45;5.88;;;28.00;99.90;;;;;;5290223;28;20106;-71
2023/07/04 08:10:26;;;;;;;6.63;6.13;;;28.10;99.90;;;;;;5290125;28;20156;-72
2023/07/04 08:12:57;;;;;;;7.07;6.38;;;28.00;99.90;;;;;;5290133;28;20098;-71
2023/07/04 08:15:28;;;;;;;8.43;6.57;;;28.20;99.90;;;;;;5290152;28;20030;-71
2023/07/04 08:18:09;;;;;;;7.78;7.00;;;28.20;99.90;;;;;;5289810;28;20028;-71
2023/07/04 08:20:41;;;;;;;7.53;6.70;;;28.10;99.90;;;;;;5289936;28;20028;-71
2023/07/04 08:23:11;;;;;;;7.60;6.70;;;28.20;99.90;;;;;;5289923;28;20568;-71
2023/07/04 08:25:42;;;;;;;6.88;6.28;;;28.20;99.90;;;;;;5289786;28;20027;-71
2023/07/04 08:28:13;;;;;;;7.90;6.75;;;28.20;99.90;;;;;;5289680;28;20036;-71
2023/07/04 08:30:45;;;;;;;7.63;6.13;;;28.40;99.90;;;;;;5289875;28;20088;-71
2023/07/04 08:33:17;;;;;;;6.97;6.38;;;28.40;99.90;;;;;;5289871;28;20023;-71
2023/07/04 08:36:02;;;;;;;7.05;6.45;;;28.50;99.90;;;;;;5289689;28;20148;-71
2023/07/04 08:38:33;;;;;;;8.13;7.40;;;28.60;99.90;;;;;;5289557;28;20031;-71
2023/07/04 08:41:21;;;;;;;7.43;6.82;;;28.50;99.90;;;;;;5288266;28;20038;-71
2023/07/04 08:44:42;;;;;;;7.80;7.07;;;28.40;99.90;;;;;;5289762;28;20024;-71
2023/07/04 08:47:16;;;;;;;7.80;7.10;;;28.40;99.90;;;;;;5254294;28;20035;-71
2023/07/04 08:49:50;;;;;;;7.85;7.05;;;28.60;99.90;;;;;;5289519;28;20034;-71
2023/07/04 08:52:39;;;;;;;7.97;6.85;;;28.80;99.90;;;;;;5289652;28;20027;-71
2023/07/04 08:55:15;;;;;;;7.35;6.75;;;28.80;99.90;;;;;;5289417;28;20058;-71
2023/07/04 08:57:53;;;;;;;7.50;6.90;;;28.80;99.90;;;;;;5289302;28;20047;-71
2023/07/04 09:00:44;;;;;;;9.43;8.63;;;28.90;99.90;;;;;;5289334;28;20012;-71
2023/07/04 09:03:32;;;;;;;9.48;8.32;;;28.80;99.90;;;;;;5289435;28;20051;-71
2023/07/04 09:06:22;;;;;;;11.48;7.60;;;28.80;99.90;;;;;;5288060;28;20522;-71
2023/07/04 09:09:20;;;;;;;9.10;8.27;;;28.90;99.90;;;;;;5289245;28;20027;-71
2023/07/04 09:11:52;;;;;;;9.30;8.18;;;28.90;99.90;;;;;;5289202;28;20084;-71
2023/07/04 09:14:36;;;;;;;8.82;8.10;;;29.00;99.90;;;;;;5289175;28;20030;-71
2023/07/04 09:17:27;;;;;;;8.23;7.57;;;29.10;99.90;;;;;;5288930;28;20039;-71
2023/07/04 09:19:59;;;;;;;8.57;7.88;;;29.00;99.90;;;;;;5289079;28;20024;-71
2023/07/04 09:22:30;;;;;;;8.32;7.47;;;29.20;99.90;;;;;;5289088;28;20081;-71
2023/07/04 09:25:02;;;;;;;7.25;6.65;;;29.20;99.90;;;;;;5288917;28;20023;-71
2023/07/04 09:27:34;;;;;;;7.82;6.43;;;29.10;99.90;;;;;;5288652;28;20506;-71
2023/07/04 09:30:06;;;;;;;6.75;6.13;;;29.30;99.90;;;;;;5288891;28;20382;-71
2023/07/04 09:32:37;;;;;;;7.35;6.65;;;29.40;99.90;;;;;;5288806;28;20031;-71
2023/07/04 09:35:09;;;;;;;7.28;6.68;;;29.10;99.90;;;;;;5288841;28;20123;-71
2023/07/04 09:38:00;;;;;;;7.25;6.55;;;29.30;99.90;;;;;;5288822;28;20391;-71
2023/07/04 09:40:58;;;;;;;7.07;6.38;;;29.30;99.90;;;;;;5287540;28;20088;-71
2023/07/04 09:43:32;;;;;;;7.93;7.07;;;29.40;99.90;;;;;;5285023;28;20124;-71
2023/07/04 09:46:16;;;;;;;7.28;6.57;;;29.50;99.90;;;;;;5288536;28;20051;-71
2023/07/04 09:48:47;;;;;;;7.22;6.53;;;29.10;99.90;;;;;;5288673;28;20027;-71
2023/07/04 09:51:23;;;;;;;6.82;6.22;;;29.20;99.90;;;;;;5288934;28;20131;-71
2023/07/04 09:54:27;;;;;;;7.82;7.22;;;29.60;99.90;;;;;;5287562;28;20587;-70
2023/07/04 09:57:16;;;;;;;6.93;6.22;;;29.40;99.90;;;;;;5243846;28;20822;-71
2023/07/04 09:59:47;;;;;;;7.82;7.18;;;29.40;99.90;;;;;;5290931;28;20024;-71
2023/07/04 10:02:25;;;;;;;6.95;6.15;;;29.60;99.90;;;;;;5293131;28;20135;-71
2023/07/04 10:04:56;;;;;;;6.38;5.82;;;29.70;99.90;;;;;;5292990;28;20020;-71
2023/07/04 10:07:27;;;;;;;7.13;6.53;;;29.80;99.90;;;;;;5291547;28;20563;-71
2023/07/04 10:10:01;;;;;;;8.75;7.28;;;29.80;99.90;;;;;;5292745;28;20024;-71
2023/07/04 10:12:41;;;;;;;7.68;7.05;;;29.80;99.90;;;;;;5292576;28;20034;-71
2023/07/04 10:15:24;;;;;;;7.35;6.65;;;29.50;99.90;;;;;;5292798;28;20028;-71
2023/07/04 10:17:55;;;;;;;7.55;6.80;;;29.70;99.90;;;;;;5292400;28;20486;-72
2023/07/04 10:20:35;;;;;;;8.52;6.88;;;29.90;99.90;;;;;;5292506;28;20088;-71
2023/07/04 10:23:07;;;;;;;7.03;6.43;;;30.00;99.90;;;;;;5292610;27;20027;-71
2023/07/04 10:25:37;;;;;;;7.85;7.07;;;29.90;99.90;;;;;;5292344;28;20012;-71
2023/07/04 10:28:17;;;;;;;7.22;6.63;;;29.90;99.90;;;;;;5292091;28;20070;-71
2023/07/04 10:30:54;;;;;;;6.95;6.30;;;30.10;99.90;;;;;;5292244;28;20028;-71
2023/07/04 10:33:34;;;;;;;7.65;7.03;;;30.10;99.90;;;;;;5292319;28;20028;-71
2023/07/04 10:36:10;;;;;;;6.60;6.05;;;30.20;99.90;;;;;;5292152;28;20030;-71
2023/07/04 10:38:47;;;;;;;7.18;6.53;;;30.10;99.90;;;;;;5292015;28;20039;-71
2023/07/04 10:41:38;;;;;;;6.70;6.10;;;30.00;99.90;;;;;;5292109;28;20028;-71
2023/07/04 10:44:30;;;;;;;6.15;5.65;;;30.20;99.90;;;;;;5292062;28;20023;-71
2023/07/04 10:47:06;;;;;;;6.55;5.68;;;30.40;99.90;;;;;;5290500;28;20478;-72
2023/07/04 10:49:44;;;;;;;6.80;6.10;;;30.40;99.90;;;;;;5291938;28;20026;-71
2023/07/04 10:52:19;;;;;;;7.35;5.90;;;30.40;99.90;;;;;;5291806;28;20070;-71
2023/07/04 10:54:50;;;;;;;7.10;6.50;;;30.50;99.90;;;;;;5291705;28;20031;-71
2023/07/04 10:57:28;;;;;;;5.93;5.43;;;30.50;99.90;;;;;;5290163;28;20101;-71
2023/07/04 11:00:14;;;;;;;6.47;5.82;;;30.20;99.90;;;;;;5291628;28;20027;-71
2023/07/04 11:02:53;;;;;;;6.22;5.72;;;30.40;99.90;;;;;;5291666;28;20076;-72
2023/07/04 11:05:30;;;;;;;6.00;5.43;;;30.40;99.90;;;;;;5291592;27;20032;-71
2023/07/04 11:08:02;;;;;;;5.22;4.70;;;30.60;99.90;;;;;;5291399;28;20020;-72
2023/07/04 11:10:39;;;;;;;5.70;5.20;;;30.60;99.90;;;;;;5291038;28;20032;-71
2023/07/04 11:13:19;;;;;;;5.97;5.18;;;30.30;99.90;;;;;;5291420;28;20095;-71
2023/07/04 11:16:03;;;;;;;5.10;4.70;;;30.30;99.90;;;;;;5291338;28;20371;-72
2023/07/04 11:18:39;;;;;;;5.47;5.07;;;30.50;99.90;;;;;;5291172;28;20372;-71
2023/07/04 11:21:13;;;;;;;4.97;4.57;;;30.60;99.90;;;;;;5291316;28;20039;-71
2023/07/04 11:24:12;;;;;;;5.05;4.60;;;30.50;99.90;;;;;;5291342;28;20023;-71
2023/07/04 11:27:09;;;;;;;5.80;5.22;;;30.40;99.90;;;;;;5291217;27;20403;-71
2023/07/04 11:29:57;;;;;;;6.25;4.68;;;30.50;99.90;;;;;;5291049;28;20035;-71
2023/07/04 11:32:37;;;;;;;7.38;4.90;;;30.60;99.90;;;;;;5291085;28;20114;-72
2023/07/04 11:35:13;;;;;;;5.47;4.97;;;30.70;99.90;;;;;;5291088;28;20028;-71
2023/07/04 11:37:45;;;;;;;6.13;5.53;;;30.70;99.90;;;;;;5290934;28;20574;-71
2023/07/04 11:40:31;;;;;;;5.70;4.90;;;30.60;99.90;;;;;;5289599;28;20035;-72
2023/07/04 11:43:21;;;;;;;5.45;4.95;;;30.80;99.90;;;;;;5291000;27;20054;-71
2023/07/04 11:45:55;;;;;;;5.47;4.97;;;30.60;99.90;;;;;;5290763;28;20083;-71
2023/07/04 11:48:29;;;;;;;5.55;5.05;;;30.50;99.90;;;;;;5290739;28;20114;-71
2023/07/04 11:51:11;;;;;;;5.43;4.72;;;30.40;99.90;;;;;;5290561;28;20087;-71
2023/07/04 11:53:58;;;;;;;5.63;5.05;;;30.50;99.90;;;;;;5290514;28;20020;-71
2023/07/04 11:56:29;;;;;;;5.03;4.53;;;30.10;99.90;;;;;;5290424;28;20063;-69
2023/07/04 11:59:12;;;;;;;6.15;5.30;;;30.30;99.90;;;;;;5290294;28;20063;-71
2023/07/04 12:01:52;;;;;;;6.13;5.50;;;30.40;99.90;;;;;;5290347;28;20039;-71
2023/07/04 12:04:44;;;;;;;6.47;5.20;;;30.40;99.90;;;;;;5290199;28;20030;-71
2023/07/04 12:07:48;;;;;;;5.30;4.80;;;30.50;99.90;;;;;;5290229;28;20035;-71
2023/07/04 12:10:22;;;;;;;6.22;5.68;;;30.50;99.90;;;;;;5290147;28;20024;-71
2023/07/04 12:13:02;;;;;;;6.55;5.32;;;30.30;99.90;;;;;;5290143;28;20111;-71
2023/07/04 12:15:37;;;;;;;6.63;6.07;;;30.50;99.90;;;;;;5290040;28;20020;-71
2023/07/04 12:18:19;;;;;;;6.85;5.47;;;30.70;99.90;;;;;;5289822;28;20084;-72
2023/07/04 12:20:51;;;;;;;5.78;5.28;;;30.40;99.90;;;;;;5290091;28;20032;-71
2023/07/04 12:23:23;;;;;;;5.50;5.03;;;30.50;99.90;;;;;;5289322;28;20019;-71
2023/07/04 12:25:59;;;;;;;6.22;5.50;;;30.40;99.90;;;;;;5289749;28;20028;-71
2023/07/04 12:28:31;;;;;;;6.18;5.65;;;30.50;99.90;;;;;;5289669;28;20056;-71
2023/07/04 12:31:04;;;;;;;6.28;5.70;;;30.30;99.90;;;;;;5289796;28;20039;-72
2023/07/04 12:33:44;;;;;;;6.53;6.03;;;30.30;99.90;;;;;;5289727;28;20049;-71
2023/07/04 12:36:16;;;;;;;7.55;5.95;;;30.50;99.90;;;;;;5289830;28;20039;-71
2023/07/04 12:38:54;;;;;;;6.40;5.80;;;30.40;99.90;;;;;;5289571;28;20038;-71
2023/07/04 12:41:31;;;;;;;6.80;6.20;;;30.30;99.90;;;;;;5289698;28;20021;-71
2023/07/04 12:44:04;;;;;;;7.25;6.50;;;30.00;99.90;;;;;;5290038;28;20475;-71
2023/07/04 12:46:41;;;;;;;7.60;6.90;;;30.20;99.90;;;;;;5289706;28;20099;-71
2023/07/04 12:49:13;;;;;;;7.35;6.70;;;30.40;99.90;;;;;;5289668;28;20019;-71
2023/07/04 12:51:45;;;;;;;7.72;7.03;;;30.40;99.90;;;;;;5289617;28;20032;-71
2023/07/04 12:54:16;;;;;;;8.23;7.43;;;30.20;99.90;;;;;;5289532;28;20023;-71
2023/07/04 12:56:48;;;;;;;7.13;6.53;;;30.30;99.90;;;;;;5289216;28;20028;-72
2023/07/04 12:59:37;;;;;;;6.90;6.30;;;30.40;99.90;;;;;;5289369;28;20036;-72
2023/07/04 13:02:32;;;;;;;7.32;6.20;;;30.20;99.90;;;;;;5289327;28;20023;-71
2023/07/04 13:05:05;;;;;;;7.07;6.38;;;30.30;99.90;;;;;;5289343;28;20146;-71
2023/07/04 13:07:36;;;;;;;6.70;6.10;;;30.20;99.90;;;;;;5289252;28;20080;-71
2023/07/04 13:10:09;;;;;;;6.82;6.22;;;30.10;99.90;;;;;;5289238;28;20028;-71
2023/07/04 13:12:41;;;;;;;6.55;5.97;;;30.00;99.90;;;;;;5289195;28;20036;-71